»·PEaware :: N210AR KCMA-KSNA

N210AR :: KCMA-KSNA

FLIGHT INFORMATION

Flight Status: Arrived
Operator: Privately registered:
United States
More flights under this callsign
Pilot: Max S. (16657)
Aircraft: CESSNA 172 SKYHAWK
(C172)
More flights by this aircraft type
Origin: KCMA Camarillo
United States
Destination: KSNA John Wayne-Orange Co
United States
More flights between these airports :: More routes between these airports
Route: +SMO VPLSR
File this flight plan on PilotEdge
Remarks:
Altitude:
(Current/Filed)
3,500ft
Speed:
(Current/Filed)
100kts
Departed: 06-Oct-20 08:10 AM
Arrived: 06-Oct-20 09:16 AM
Distance/Time
Traveled:
69nm/1:06
Distance/Time
To Go:
Arrived

Flight Plot

Page will automatically refresh every two minutes.

Flight plan parsing failed; only flown route is shown


Map Options




Map Legend


Flown Route
Filed Route
Departure Airport
Arrival Airport
Navaid (VOR, NDB)
Fix

Horizontal Profiles

Position Reports

Time Latitude Longitude Heading Altitude Ground
Speed
06-Oct-20 07:52 34.210535 -119.089760 270 72ft 0kts
06-Oct-20 07:53 34.210535 -119.089760 270 72ft 0kts
06-Oct-20 07:54 34.210535 -119.089760 270 72ft 0kts
06-Oct-20 07:55 34.210535 -119.089760 270 72ft 0kts
06-Oct-20 07:56 34.210535 -119.089760 270 72ft 0kts
06-Oct-20 07:57 34.210535 -119.089760 270 72ft 0kts
06-Oct-20 07:58 34.210535 -119.089760 270 72ft 0kts
06-Oct-20 07:59 34.210535 -119.089760 270 72ft 0kts
06-Oct-20 08:00 34.210535 -119.089760 270 72ft 0kts
06-Oct-20 08:01 34.210535 -119.089760 270 72ft 0kts
06-Oct-20 08:02 34.210535 -119.089760 270 72ft 0kts
06-Oct-20 08:03 34.210960 -119.087950 89 74ft 20kts
06-Oct-20 08:04 34.212782 -119.084627 358 80ft 0kts
06-Oct-20 08:05 34.212782 -119.084627 358 80ft 0kts
06-Oct-20 08:06 34.212782 -119.084627 358 80ft 0kts
06-Oct-20 08:07 34.212782 -119.084627 358 80ft 0kts
06-Oct-20 08:08 34.213426 -119.084628 352 81ft 16kts
06-Oct-20 08:09 34.213090 -119.107102 242 874ft 77kts
06-Oct-20 08:10 34.201482 -119.094971 87 1879ft 77kts
06-Oct-20 08:11 34.200234 -119.068338 100 2759ft 87kts
06-Oct-20 08:12 34.204215 -119.040072 77 3578ft 89kts
06-Oct-20 08:13 34.206334 -119.010228 89 4330ft 89kts
06-Oct-20 08:14 34.205216 -118.980254 99 5030ft 90kts
06-Oct-20 08:15 34.199063 -118.950749 107 5678ft 92kts
06-Oct-20 08:16 34.192965 -118.920686 101 6294ft 92kts
06-Oct-20 08:17 34.188516 -118.890126 99 6894ft 91kts
06-Oct-20 08:18 34.184761 -118.859852 98 7441ft 96kts
06-Oct-20 08:20 34.179490 -118.822016 101 7408ft 119kts
06-Oct-20 08:21 34.174280 -118.782321 99 7409ft 119kts
06-Oct-20 08:22 34.169526 -118.742776 99 7409ft 119kts
06-Oct-20 08:23 34.165668 -118.703067 96 7411ft 119kts
06-Oct-20 08:24 34.161285 -118.663188 97 7411ft 119kts
06-Oct-20 08:25 34.156698 -118.623564 97 7411ft 119kts
06-Oct-20 08:26 34.152005 -118.583759 97 7411ft 119kts
06-Oct-20 08:27 34.147361 -118.544461 97 7411ft 119kts
06-Oct-20 08:28 34.142658 -118.504753 97 7411ft 119kts
06-Oct-20 08:29 34.137939 -118.465027 97 7411ft 119kts
06-Oct-20 08:30 34.133210 -118.425324 97 7411ft 119kts
06-Oct-20 08:31 34.128465 -118.385591 97 7411ft 119kts
06-Oct-20 08:32 34.128119 -118.344743 85 7159ft 125kts
06-Oct-20 08:33 34.130663 -118.303936 85 6670ft 124kts
06-Oct-20 08:34 34.133151 -118.262529 88 6169ft 123kts
06-Oct-20 08:35 34.130552 -118.223033 102 5849ft 120kts
06-Oct-20 08:36 34.123141 -118.187298 104 5398ft 121kts
06-Oct-20 08:37 34.123141 -118.187298 104 5398ft 121kts
06-Oct-20 08:38 34.123141 -118.187298 104 5398ft 121kts
06-Oct-20 08:39 34.123141 -118.187298 104 5398ft 121kts
06-Oct-20 08:39 34.123141 -118.187298 104 5398ft 121kts
06-Oct-20 08:40 34.123141 -118.187298 104 5398ft 121kts
06-Oct-20 08:42 34.123141 -118.187298 104 5398ft 121kts
06-Oct-20 08:42 34.123141 -118.187298 104 5398ft 121kts
06-Oct-20 08:55 34.114500 -118.145923 104 5351ft 108kts
06-Oct-20 08:56 34.106511 -118.109656 104 4890ft 120kts
06-Oct-20 08:57 34.097850 -118.070351 104 4389ft 121kts
06-Oct-20 08:58 34.082611 -118.036003 148 3885ft 121kts
06-Oct-20 08:59 34.052450 -118.020935 160 3410ft 119kts
06-Oct-20 09:00 34.023401 -118.008981 161 3436ft 109kts
06-Oct-20 09:01 33.994582 -117.997245 161 3436ft 109kts
06-Oct-20 09:02 33.965866 -117.985562 161 3436ft 109kts
06-Oct-20 09:03 33.937283 -117.973387 145 3432ft 109kts
06-Oct-20 09:04 33.915107 -117.948598 138 3436ft 109kts
06-Oct-20 09:05 33.892667 -117.924621 138 3436ft 109kts
06-Oct-20 09:06 33.870606 -117.901058 138 3436ft 109kts
06-Oct-20 09:07 33.848294 -117.877243 138 3436ft 109kts
06-Oct-20 09:08 33.825554 -117.852964 138 3436ft 109kts
06-Oct-20 09:09 33.796866 -117.853529 189 3436ft 109kts
06-Oct-20 09:10 33.767208 -117.851100 158 3436ft 109kts
06-Oct-20 09:11 33.746920 -117.824589 121 3436ft 109kts
06-Oct-20 09:12 33.725862 -117.800882 181 3338ft 115kts
06-Oct-20 09:13 33.713623 -117.830469 265 1878ft 126kts
06-Oct-20 09:14 33.693077 -117.856060 205 379ft 104kts
06-Oct-20 09:15 33.675384 -117.867155 205 60ft 15kts
06-Oct-20 09:16 33.673876 -117.867515 122 60ft 0kts
06-Oct-20 09:17 33.673824 -117.867403 117 60ft 5kts
06-Oct-20 09:18 33.671685 -117.867958 126 60ft 8kts
06-Oct-20 09:19 33.670651 -117.868553 229 60ft 2kts
06-Oct-20 09:20 33.670625 -117.868589 229 60ft 0kts
06-Oct-20 09:21 33.670625 -117.868588 229 60ft 0kts

Navigation Log

Ident Type
Flight plan parsing failed, navigation log unavailable